sensor_id;sensor_type;location;lat;lon;timestamp;temperature;humidity
20803;DHT22;10562;-33.856;151.182;2023-08-08T00:01:26;13.80;99.90
20803;DHT22;10562;-33.856;151.182;2023-08-08T00:03:56;14.00;99.90
20803;DHT22;10562;-33.856;151.182;2023-08-08T00:06:29;14.10;99.90
20803;DHT22;10562;-33.856;151.182;2023-08-08T00:09:00;14.20;99.90
20803;DHT22;10562;-33.856;151.182;2023-08-08T00:11:31;14.30;99.90
20803;DHT22;10562;-33.856;151.182;2023-08-08T00:14:02;14.50;99.90
20803;DHT22;10562;-33.856;151.182;2023-08-08T00:16:33;14.60;99.90
20803;DHT22;10562;-33.856;151.182;2023-08-08T00:19:05;14.60;99.90
20803;DHT22;10562;-33.856;151.182;2023-08-08T00:21:38;14.70;99.90
20803;DHT22;10562;-33.856;151.182;2023-08-08T00:24:08;14.70;99.90
20803;DHT22;10562;-33.856;151.182;2023-08-08T00:26:39;14.90;99.90
20803;DHT22;10562;-33.856;151.182;2023-08-08T00:29:10;14.90;99.90
20803;DHT22;10562;-33.856;151.182;2023-08-08T00:31:41;15.00;99.90
20803;DHT22;10562;-33.856;151.182;2023-08-08T00:34:11;15.10;99.90
20803;DHT22;10562;-33.856;151.182;2023-08-08T00:36:44;15.30;99.90
20803;DHT22;10562;-33.856;151.182;2023-08-08T00:39:15;15.40;99.90
20803;DHT22;10562;-33.856;151.182;2023-08-08T00:41:45;15.20;99.90
20803;DHT22;10562;-33.856;151.182;2023-08-08T00:44:16;15.20;99.90
20803;DHT22;10562;-33.856;151.182;2023-08-08T00:46:47;15.20;99.90
20803;DHT22;10562;-33.856;151.182;2023-08-08T00:49:18;15.30;99.90
20803;DHT22;10562;-33.856;151.182;2023-08-08T00:51:52;15.30;99.90
20803;DHT22;10562;-33.856;151.182;2023-08-08T00:54:25;15.40;99.90
20803;DHT22;10562;-33.856;151.182;2023-08-08T00:56:56;15.40;99.90
20803;DHT22;10562;-33.856;151.182;2023-08-08T00:59:28;15.50;99.90
20803;DHT22;10562;-33.856;151.182;2023-08-08T01:01:59;15.50;99.90
20803;DHT22;10562;-33.856;151.182;2023-08-08T01:04:30;15.50;99.90
20803;DHT22;10562;-33.856;151.182;2023-08-08T01:07:12;15.60;99.90
20803;DHT22;10562;-33.856;151.182;2023-08-08T01:09:48;15.70;99.90
20803;DHT22;10562;-33.856;151.182;2023-08-08T01:12:21;15.70;99.90
20803;DHT22;10562;-33.856;151.182;2023-08-08T01:14:52;15.70;99.90
20803;DHT22;10562;-33.856;151.182;2023-08-08T01:17:23;15.80;99.90
20803;DHT22;10562;-33.856;151.182;2023-08-08T01:19:55;15.80;99.90
20803;DHT22;10562;-33.856;151.182;2023-08-08T01:22:33;15.80;99.90
20803;DHT22;10562;-33.856;151.182;2023-08-08T01:25:08;15.80;99.90
20803;DHT22;10562;-33.856;151.182;2023-08-08T01:27:40;15.70;99.90
20803;DHT22;10562;-33.856;151.182;2023-08-08T01:30:11;15.70;99.90
20803;DHT22;10562;-33.856;151.182;2023-08-08T01:32:42;15.70;99.90
20803;DHT22;10562;-33.856;151.182;2023-08-08T01:35:13;15.80;99.90
20803;DHT22;10562;-33.856;151.182;2023-08-08T01:37:50;16.00;99.90
20803;DHT22;10562;-33.856;151.182;2023-08-08T01:40:25;16.00;99.90
20803;DHT22;10562;-33.856;151.182;2023-08-08T01:42:57;16.20;99.90
20803;DHT22;10562;-33.856;151.182;2023-08-08T01:45:28;16.40;99.90
20803;DHT22;10562;-33.856;151.182;2023-08-08T01:47:58;16.60;99.90
20803;DHT22;10562;-33.856;151.182;2023-08-08T01:50:29;16.80;99.90
20803;DHT22;10562;-33.856;151.182;2023-08-08T01:53:00;17.00;99.90
20803;DHT22;10562;-33.856;151.182;2023-08-08T01:55:34;17.30;99.90
20803;DHT22;10562;-33.856;151.182;2023-08-08T01:58:05;17.50;99.90
20803;DHT22;10562;-33.856;151.182;2023-08-08T02:00:36;17.80;99.90
20803;DHT22;10562;-33.856;151.182;2023-08-08T02:03:08;18.00;99.90
20803;DHT22;10562;-33.856;151.182;2023-08-08T02:05:40;18.20;99.90
20803;DHT22;10562;-33.856;151.182;2023-08-08T02:08:11;18.50;99.90
20803;DHT22;10562;-33.856;151.182;2023-08-08T02:10:44;18.90;99.90
20803;DHT22;10562;-33.856;151.182;2023-08-08T02:13:14;19.00;99.90
20803;DHT22;10562;-33.856;151.182;2023-08-08T02:15:45;19.00;99.90
20803;DHT22;10562;-33.856;151.182;2023-08-08T02:18:16;18.80;99.90
20803;DHT22;10562;-33.856;151.182;2023-08-08T02:20:47;18.50;99.90
20803;DHT22;10562;-33.856;151.182;2023-08-08T02:23:18;18.20;99.90
20803;DHT22;10562;-33.856;151.182;2023-08-08T02:25:50;18.00;99.90
20803;DHT22;10562;-33.856;151.182;2023-08-08T02:28:21;17.70;99.90
20803;DHT22;10562;-33.856;151.182;2023-08-08T02:30:52;17.70;99.90
20803;DHT22;10562;-33.856;151.182;2023-08-08T02:33:23;17.80;99.90
20803;DHT22;10562;-33.856;151.182;2023-08-08T02:35:53;18.20;99.90
20803;DHT22;10562;-33.856;151.182;2023-08-08T02:38:24;18.40;99.90
20803;DHT22;10562;-33.856;151.182;2023-08-08T02:40:57;18.60;99.90
20803;DHT22;10562;-33.856;151.182;2023-08-08T02:43:27;18.80;99.90
20803;DHT22;10562;-33.856;151.182;2023-08-08T02:45:58;19.10;99.90
20803;DHT22;10562;-33.856;151.182;2023-08-08T02:48:30;19.20;99.90
20803;DHT22;10562;-33.856;151.182;2023-08-08T02:51:01;19.20;99.90
20803;DHT22;10562;-33.856;151.182;2023-08-08T02:53:31;19.00;99.90
20803;DHT22;10562;-33.856;151.182;2023-08-08T02:56:04;18.90;99.90
20803;DHT22;10562;-33.856;151.182;2023-08-08T02:58:35;18.60;99.90
20803;DHT22;10562;-33.856;151.182;2023-08-08T03:01:06;18.50;99.90
20803;DHT22;10562;-33.856;151.182;2023-08-08T03:03:36;18.20;99.90
20803;DHT22;10562;-33.856;151.182;2023-08-08T03:06:08;18.10;99.90
20803;DHT22;10562;-33.856;151.182;2023-08-08T03:08:38;17.90;99.90
20803;DHT22;10562;-33.856;151.182;2023-08-08T03:11:11;18.10;99.90
20803;DHT22;10562;-33.856;151.182;2023-08-08T03:13:42;18.40;99.90
20803;DHT22;10562;-33.856;151.182;2023-08-08T03:16:13;18.60;99.90
20803;DHT22;10562;-33.856;151.182;2023-08-08T03:18:44;18.70;99.90
20803;DHT22;10562;-33.856;151.182;2023-08-08T03:21:15;18.90;99.90
20803;DHT22;10562;-33.856;151.182;2023-08-08T03:23:46;19.00;99.90
20803;DHT22;10562;-33.856;151.182;2023-08-08T03:26:18;19.00;99.90
20803;DHT22;10562;-33.856;151.182;2023-08-08T03:28:49;19.20;99.90
20803;DHT22;10562;-33.856;151.182;2023-08-08T03:31:21;19.40;99.90
20803;DHT22;10562;-33.856;151.182;2023-08-08T03:33:52;19.50;99.90
20803;DHT22;10562;-33.856;151.182;2023-08-08T03:36:22;19.70;99.90
20803;DHT22;10562;-33.856;151.182;2023-08-08T03:38:54;19.70;99.90
20803;DHT22;10562;-33.856;151.182;2023-08-08T03:41:26;19.80;99.90
20803;DHT22;10562;-33.856;151.182;2023-08-08T03:43:57;19.80;99.90
20803;DHT22;10562;-33.856;151.182;2023-08-08T03:46:30;19.60;99.90
20803;DHT22;10562;-33.856;151.182;2023-08-08T03:49:01;19.50;99.90
20803;DHT22;10562;-33.856;151.182;2023-08-08T03:51:33;19.50;99.90
20803;DHT22;10562;-33.856;151.182;2023-08-08T03:54:04;19.50;99.90
20803;DHT22;10562;-33.856;151.182;2023-08-08T03:56:37;19.50;99.90
20803;DHT22;10562;-33.856;151.182;2023-08-08T03:59:08;19.50;99.90
20803;DHT22;10562;-33.856;151.182;2023-08-08T04:01:39;19.50;99.90
20803;DHT22;10562;-33.856;151.182;2023-08-08T04:04:10;19.50;99.90
20803;DHT22;10562;-33.856;151.182;2023-08-08T04:06:41;19.60;99.90
20803;DHT22;10562;-33.856;151.182;2023-08-08T04:09:12;19.60;99.90
20803;DHT22;10562;-33.856;151.182;2023-08-08T04:11:44;19.60;99.90
20803;DHT22;10562;-33.856;151.182;2023-08-08T04:14:16;19.70;99.90
20803;DHT22;10562;-33.856;151.182;2023-08-08T04:16:46;19.80;99.90
20803;DHT22;10562;-33.856;151.182;2023-08-08T04:19:17;19.80;99.90
20803;DHT22;10562;-33.856;151.182;2023-08-08T04:21:48;19.80;99.90
20803;DHT22;10562;-33.856;151.182;2023-08-08T04:24:19;19.70;99.90
20803;DHT22;10562;-33.856;151.182;2023-08-08T04:26:51;19.60;99.90
20803;DHT22;10562;-33.856;151.182;2023-08-08T04:29:22;19.70;99.90
20803;DHT22;10562;-33.856;151.182;2023-08-08T04:31:53;19.80;99.90
20803;DHT22;10562;-33.856;151.182;2023-08-08T04:34:24;19.80;99.90
20803;DHT22;10562;-33.856;151.182;2023-08-08T04:36:55;19.80;99.90
20803;DHT22;10562;-33.856;151.182;2023-08-08T04:39:25;19.70;99.90
20803;DHT22;10562;-33.856;151.182;2023-08-08T04:41:58;19.70;99.90
20803;DHT22;10562;-33.856;151.182;2023-08-08T04:44:29;19.70;99.90
20803;DHT22;10562;-33.856;151.182;2023-08-08T04:46:59;19.80;99.90
20803;DHT22;10562;-33.856;151.182;2023-08-08T04:49:30;19.70;99.90
20803;DHT22;10562;-33.856;151.182;2023-08-08T04:52:01;19.60;99.90
20803;DHT22;10562;-33.856;151.182;2023-08-08T04:54:32;19.40;99.90
20803;DHT22;10562;-33.856;151.182;2023-08-08T04:57:05;19.30;99.90
20803;DHT22;10562;-33.856;151.182;2023-08-08T04:59:35;19.20;99.90
20803;DHT22;10562;-33.856;151.182;2023-08-08T05:02:06;19.30;99.90
20803;DHT22;10562;-33.856;151.182;2023-08-08T05:04:37;19.30;99.90
20803;DHT22;10562;-33.856;151.182;2023-08-08T05:07:08;19.30;99.90
20803;DHT22;10562;-33.856;151.182;2023-08-08T05:09:39;19.10;99.90
20803;DHT22;10562;-33.856;151.182;2023-08-08T05:12:12;19.00;99.90
20803;DHT22;10562;-33.856;151.182;2023-08-08T05:14:43;18.80;99.90
20803;DHT22;10562;-33.856;151.182;2023-08-08T05:17:13;18.70;99.90
20803;DHT22;10562;-33.856;151.182;2023-08-08T05:19:44;18.40;99.90
20803;DHT22;10562;-33.856;151.182;2023-08-08T05:22:15;18.30;99.90
20803;DHT22;10562;-33.856;151.182;2023-08-08T05:24:46;18.30;99.90
20803;DHT22;10562;-33.856;151.182;2023-08-08T05:27:18;18.30;99.90
20803;DHT22;10562;-33.856;151.182;2023-08-08T05:29:49;18.40;99.90
20803;DHT22;10562;-33.856;151.182;2023-08-08T05:32:20;18.30;99.90
20803;DHT22;10562;-33.856;151.182;2023-08-08T05:34:52;18.30;99.90
20803;DHT22;10562;-33.856;151.182;2023-08-08T05:37:23;18.30;99.90
20803;DHT22;10562;-33.856;151.182;2023-08-08T05:39:54;18.10;99.90
20803;DHT22;10562;-33.856;151.182;2023-08-08T05:42:27;18.00;99.90
20803;DHT22;10562;-33.856;151.182;2023-08-08T05:44:59;17.90;99.90
20803;DHT22;10562;-33.856;151.182;2023-08-08T05:47:30;17.90;99.90
20803;DHT22;10562;-33.856;151.182;2023-08-08T05:50:01;17.90;99.90
20803;DHT22;10562;-33.856;151.182;2023-08-08T05:52:32;17.90;99.90
20803;DHT22;10562;-33.856;151.182;2023-08-08T05:55:03;18.00;99.90
20803;DHT22;10562;-33.856;151.182;2023-08-08T05:57:36;18.00;99.90
20803;DHT22;10562;-33.856;151.182;2023-08-08T06:00:07;18.00;99.90
20803;DHT22;10562;-33.856;151.182;2023-08-08T06:02:39;18.00;99.90
20803;DHT22;10562;-33.856;151.182;2023-08-08T06:05:10;18.10;99.90
20803;DHT22;10562;-33.856;151.182;2023-08-08T06:07:41;18.00;99.90
20803;DHT22;10562;-33.856;151.182;2023-08-08T06:10:12;18.00;99.90
20803;DHT22;10562;-33.856;151.182;2023-08-08T06:12:45;17.90;99.90
20803;DHT22;10562;-33.856;151.182;2023-08-08T06:15:15;17.90;99.90
20803;DHT22;10562;-33.856;151.182;2023-08-08T06:17:46;17.70;99.90
20803;DHT22;10562;-33.856;151.182;2023-08-08T06:20:17;17.70;99.90
20803;DHT22;10562;-33.856;151.182;2023-08-08T06:22:48;17.50;99.90
20803;DHT22;10562;-33.856;151.182;2023-08-08T06:25:19;17.50;99.90
20803;DHT22;10562;-33.856;151.182;2023-08-08T06:27:52;17.30;99.90
20803;DHT22;10562;-33.856;151.182;2023-08-08T06:30:23;17.30;99.90
20803;DHT22;10562;-33.856;151.182;2023-08-08T06:32:54;17.20;99.90
20803;DHT22;10562;-33.856;151.182;2023-08-08T06:35:25;17.20;99.90
20803;DHT22;10562;-33.856;151.182;2023-08-08T06:37:56;17.10;99.90
20803;DHT22;10562;-33.856;151.182;2023-08-08T06:40:27;17.00;99.90
20803;DHT22;10562;-33.856;151.182;2023-08-08T06:42:59;17.00;99.90
20803;DHT22;10562;-33.856;151.182;2023-08-08T06:45:30;16.90;99.90
20803;DHT22;10562;-33.856;151.182;2023-08-08T06:48:01;16.80;99.90
20803;DHT22;10562;-33.856;151.182;2023-08-08T06:50:32;16.70;99.90
20803;DHT22;10562;-33.856;151.182;2023-08-08T06:53:03;16.70;99.90
20803;DHT22;10562;-33.856;151.182;2023-08-08T06:55:35;16.60;99.90
20803;DHT22;10562;-33.856;151.182;2023-08-08T06:58:07;16.50;99.90
20803;DHT22;10562;-33.856;151.182;2023-08-08T07:00:38;16.40;99.90
20803;DHT22;10562;-33.856;151.182;2023-08-08T07:03:09;16.30;99.90
20803;DHT22;10562;-33.856;151.182;2023-08-08T07:05:40;16.30;99.90
20803;DHT22;10562;-33.856;151.182;2023-08-08T07:08:11;16.20;99.90
20803;DHT22;10562;-33.856;151.182;2023-08-08T07:10:42;16.10;99.90
20803;DHT22;10562;-33.856;151.182;2023-08-08T07:13:14;16.00;99.90
20803;DHT22;10562;-33.856;151.182;2023-08-08T07:15:45;15.90;99.90
20803;DHT22;10562;-33.856;151.182;2023-08-08T07:18:16;15.90;99.90
20803;DHT22;10562;-33.856;151.182;2023-08-08T07:20:47;15.90;99.90
20803;DHT22;10562;-33.856;151.182;2023-08-08T07:23:17;15.80;99.90
20803;DHT22;10562;-33.856;151.182;2023-08-08T07:25:48;15.70;99.90
20803;DHT22;10562;-33.856;151.182;2023-08-08T07:28:21;15.60;99.90
20803;DHT22;10562;-33.856;151.182;2023-08-08T07:30:52;15.50;99.90
20803;DHT22;10562;-33.856;151.182;2023-08-08T07:33:23;15.50;99.90
20803;DHT22;10562;-33.856;151.182;2023-08-08T07:35:54;15.40;99.90
20803;DHT22;10562;-33.856;151.182;2023-08-08T07:38:25;15.20;99.90
20803;DHT22;10562;-33.856;151.182;2023-08-08T07:40:55;15.10;99.90
20803;DHT22;10562;-33.856;151.182;2023-08-08T07:43:28;15.00;99.90
20803;DHT22;10562;-33.856;151.182;2023-08-08T07:45:59;15.00;99.90
20803;DHT22;10562;-33.856;151.182;2023-08-08T07:48:29;14.90;99.90
20803;DHT22;10562;-33.856;151.182;2023-08-08T07:51:00;14.80;99.90
20803;DHT22;10562;-33.856;151.182;2023-08-08T07:53:31;14.90;99.90
20803;DHT22;10562;-33.856;151.182;2023-08-08T07:56:02;14.80;99.90
20803;DHT22;10562;-33.856;151.182;2023-08-08T07:58:35;14.70;99.90
20803;DHT22;10562;-33.856;151.182;2023-08-08T08:01:06;14.70;99.90
20803;DHT22;10562;-33.856;151.182;2023-08-08T08:03:37;14.70;99.90
20803;DHT22;10562;-33.856;151.182;2023-08-08T08:06:08;14.70;99.90
20803;DHT22;10562;-33.856;151.182;2023-08-08T08:08:38;14.70;99.90
20803;DHT22;10562;-33.856;151.182;2023-08-08T08:11:09;14.70;99.90
20803;DHT22;10562;-33.856;151.182;2023-08-08T08:13:42;14.60;99.90
20803;DHT22;10562;-33.856;151.182;2023-08-08T08:16:13;14.60;99.90
20803;DHT22;10562;-33.856;151.182;2023-08-08T08:18:44;14.50;99.90
20803;DHT22;10562;-33.856;151.182;2023-08-08T08:21:15;14.50;99.90
20803;DHT22;10562;-33.856;151.182;2023-08-08T08:23:47;14.50;99.90
20803;DHT22;10562;-33.856;151.182;2023-08-08T08:26:18;14.50;99.90
20803;DHT22;10562;-33.856;151.182;2023-08-08T08:28:50;14.50;99.90
20803;DHT22;10562;-33.856;151.182;2023-08-08T08:31:21;14.40;99.90
20803;DHT22;10562;-33.856;151.182;2023-08-08T08:33:52;14.40;99.90
20803;DHT22;10562;-33.856;151.182;2023-08-08T08:36:23;14.30;99.90
20803;DHT22;10562;-33.856;151.182;2023-08-08T08:38:54;14.20;99.90
20803;DHT22;10562;-33.856;151.182;2023-08-08T08:41:26;14.20;99.90
20803;DHT22;10562;-33.856;151.182;2023-08-08T08:44:01;14.20;99.90
20803;DHT22;10562;-33.856;151.182;2023-08-08T08:46:32;14.10;99.90
20803;DHT22;10562;-33.856;151.182;2023-08-08T08:49:04;14.00;99.90
20803;DHT22;10562;-33.856;151.182;2023-08-08T08:51:36;14.00;99.90
20803;DHT22;10562;-33.856;151.182;2023-08-08T08:54:07;13.90;99.90
20803;DHT22;10562;-33.856;151.182;2023-08-08T08:56:38;14.00;99.90
20803;DHT22;10562;-33.856;151.182;2023-08-08T08:59:11;14.00;99.90
20803;DHT22;10562;-33.856;151.182;2023-08-08T09:01:42;14.00;99.90
20803;DHT22;10562;-33.856;151.182;2023-08-08T09:04:13;14.00;99.90
20803;DHT22;10562;-33.856;151.182;2023-08-08T09:06:47;14.00;99.90
20803;DHT22;10562;-33.856;151.182;2023-08-08T09:09:18;14.00;99.90
20803;DHT22;10562;-33.856;151.182;2023-08-08T09:11:52;13.90;99.90
20803;DHT22;10562;-33.856;151.182;2023-08-08T09:14:27;13.90;99.90
20803;DHT22;10562;-33.856;151.182;2023-08-08T09:16:58;13.90;99.90
20803;DHT22;10562;-33.856;151.182;2023-08-08T09:19:30;13.90;99.90
20803;DHT22;10562;-33.856;151.182;2023-08-08T09:22:02;13.80;99.90
20803;DHT22;10562;-33.856;151.182;2023-08-08T09:24:33;13.80;99.90
20803;DHT22;10562;-33.856;151.182;2023-08-08T09:27:08;13.70;99.90
20803;DHT22;10562;-33.856;151.182;2023-08-08T09:29:42;13.60;99.90
20803;DHT22;10562;-33.856;151.182;2023-08-08T09:32:14;13.60;99.90
20803;DHT22;10562;-33.856;151.182;2023-08-08T09:34:45;13.50;99.90
20803;DHT22;10562;-33.856;151.182;2023-08-08T09:37:16;13.50;99.90
20803;DHT22;10562;-33.856;151.182;2023-08-08T09:39:55;13.40;99.90
20803;DHT22;10562;-33.856;151.182;2023-08-08T09:42:27;13.30;99.90
20803;DHT22;10562;-33.856;151.182;2023-08-08T09:45:01;13.30;99.90
20803;DHT22;10562;-33.856;151.182;2023-08-08T09:47:32;13.30;99.90
20803;DHT22;10562;-33.856;151.182;2023-08-08T09:50:03;13.30;99.90
20803;DHT22;10562;-33.856;151.182;2023-08-08T09:52:35;13.30;99.90
20803;DHT22;10562;-33.856;151.182;2023-08-08T09:55:08;13.30;99.90
20803;DHT22;10562;-33.856;151.182;2023-08-08T09:57:41;13.20;99.90
20803;DHT22;10562;-33.856;151.182;2023-08-08T10:00:14;13.20;99.90
20803;DHT22;10562;-33.856;151.182;2023-08-08T10:02:46;13.20;99.90
20803;DHT22;10562;-33.856;151.182;2023-08-08T10:05:17;13.10;99.90
20803;DHT22;10562;-33.856;151.182;2023-08-08T10:07:48;13.30;99.90
20803;DHT22;10562;-33.856;151.182;2023-08-08T10:10:19;13.60;99.90
20803;DHT22;10562;-33.856;151.182;2023-08-08T10:12:50;13.70;99.90
20803;DHT22;10562;-33.856;151.182;2023-08-08T10:15:26;13.70;99.90
20803;DHT22;10562;-33.856;151.182;2023-08-08T10:17:57;13.70;99.90
20803;DHT22;10562;-33.856;151.182;2023-08-08T10:20:30;13.70;99.90
20803;DHT22;10562;-33.856;151.182;2023-08-08T10:23:03;13.80;99.90
20803;DHT22;10562;-33.856;151.182;2023-08-08T10:25:35;13.90;99.90
20803;DHT22;10562;-33.856;151.182;2023-08-08T10:28:08;13.70;99.90
20803;DHT22;10562;-33.856;151.182;2023-08-08T10:30:49;13.50;99.90
20803;DHT22;10562;-33.856;151.182;2023-08-08T10:33:23;13.40;99.90
20803;DHT22;10562;-33.856;151.182;2023-08-08T10:36:00;13.30;99.90
20803;DHT22;10562;-33.856;151.182;2023-08-08T10:38:41;13.20;99.90
20803;DHT22;10562;-33.856;151.182;2023-08-08T10:41:14;13.00;99.90
20803;DHT22;10562;-33.856;151.182;2023-08-08T10:43:52;13.00;99.90
20803;DHT22;10562;-33.856;151.182;2023-08-08T10:46:29;12.90;99.90
20803;DHT22;10562;-33.856;151.182;2023-08-08T10:49:01;12.80;99.90
20803;DHT22;10562;-33.856;151.182;2023-08-08T10:51:38;12.80;99.90
20803;DHT22;10562;-33.856;151.182;2023-08-08T10:54:18;12.80;99.90
20803;DHT22;10562;-33.856;151.182;2023-08-08T10:56:51;12.70;99.90
20803;DHT22;10562;-33.856;151.182;2023-08-08T10:59:24;12.80;99.90
20803;DHT22;10562;-33.856;151.182;2023-08-08T11:01:57;12.70;99.90
20803;DHT22;10562;-33.856;151.182;2023-08-08T11:04:30;12.70;99.90
20803;DHT22;10562;-33.856;151.182;2023-08-08T11:07:02;12.70;99.90
20803;DHT22;10562;-33.856;151.182;2023-08-08T11:09:33;12.80;99.90
20803;DHT22;10562;-33.856;151.182;2023-08-08T11:12:05;12.70;99.90
20803;DHT22;10562;-33.856;151.182;2023-08-08T11:14:36;12.60;99.90
20803;DHT22;10562;-33.856;151.182;2023-08-08T11:17:08;12.60;99.90
20803;DHT22;10562;-33.856;151.182;2023-08-08T11:19:41;12.60;99.90
20803;DHT22;10562;-33.856;151.182;2023-08-08T11:22:12;12.50;99.90
20803;DHT22;10562;-33.856;151.182;2023-08-08T11:24:44;12.50;99.90
20803;DHT22;10562;-33.856;151.182;2023-08-08T11:27:15;12.60;99.90
20803;DHT22;10562;-33.856;151.182;2023-08-08T11:29:50;12.70;99.90
20803;DHT22;10562;-33.856;151.182;2023-08-08T11:32:23;12.80;99.90
20803;DHT22;10562;-33.856;151.182;2023-08-08T11:34:55;12.90;99.90
20803;DHT22;10562;-33.856;151.182;2023-08-08T11:37:26;13.00;99.90
20803;DHT22;10562;-33.856;151.182;2023-08-08T11:39:57;13.10;99.90
20803;DHT22;10562;-33.856;151.182;2023-08-08T11:42:28;13.10;99.90
20803;DHT22;10562;-33.856;151.182;2023-08-08T11:44:59;13.10;99.90
20803;DHT22;10562;-33.856;151.182;2023-08-08T11:47:34;13.20;99.90
20803;DHT22;10562;-33.856;151.182;2023-08-08T11:50:06;13.30;99.90
20803;DHT22;10562;-33.856;151.182;2023-08-08T11:52:40;13.30;99.90
20803;DHT22;10562;-33.856;151.182;2023-08-08T11:55:11;13.30;99.90
20803;DHT22;10562;-33.856;151.182;2023-08-08T11:57:43;13.30;99.90
20803;DHT22;10562;-33.856;151.182;2023-08-08T12:00:15;13.30;99.90
20803;DHT22;10562;-33.856;151.182;2023-08-08T12:02:48;13.30;99.90
20803;DHT22;10562;-33.856;151.182;2023-08-08T12:05:22;13.30;99.90
20803;DHT22;10562;-33.856;151.182;2023-08-08T12:07:53;13.40;99.90
20803;DHT22;10562;-33.856;151.182;2023-08-08T12:10:24;13.30;99.90
20803;DHT22;10562;-33.856;151.182;2023-08-08T12:12:57;13.30;99.90
20803;DHT22;10562;-33.856;151.182;2023-08-08T12:15:30;13.30;99.90
20803;DHT22;10562;-33.856;151.182;2023-08-08T12:18:03;13.30;99.90
20803;DHT22;10562;-33.856;151.182;2023-08-08T12:20:34;13.20;99.90
20803;DHT22;10562;-33.856;151.182;2023-08-08T12:23:07;13.10;99.90
20803;DHT22;10562;-33.856;151.182;2023-08-08T12:25:38;13.00;99.90
20803;DHT22;10562;-33.856;151.182;2023-08-08T12:28:09;12.90;99.90
20803;DHT22;10562;-33.856;151.182;2023-08-08T12:30:40;12.90;99.90
20803;DHT22;10562;-33.856;151.182;2023-08-08T12:33:12;12.80;99.90
20803;DHT22;10562;-33.856;151.182;2023-08-08T12:35:43;12.70;99.90
20803;DHT22;10562;-33.856;151.182;2023-08-08T12:38:14;12.60;99.90
20803;DHT22;10562;-33.856;151.182;2023-08-08T12:40:45;12.60;99.90
20803;DHT22;10562;-33.856;151.182;2023-08-08T12:43:16;12.60;99.90
20803;DHT22;10562;-33.856;151.182;2023-08-08T12:45:47;12.60;99.90
20803;DHT22;10562;-33.856;151.182;2023-08-08T12:48:19;12.50;99.90
20803;DHT22;10562;-33.856;151.182;2023-08-08T12:50:50;12.50;99.90
20803;DHT22;10562;-33.856;151.182;2023-08-08T12:53:21;12.40;99.90
20803;DHT22;10562;-33.856;151.182;2023-08-08T12:55:52;12.40;99.90
20803;DHT22;10562;-33.856;151.182;2023-08-08T12:58:22;12.30;99.90
20803;DHT22;10562;-33.856;151.182;2023-08-08T13:00:53;12.20;99.90
20803;DHT22;10562;-33.856;151.182;2023-08-08T13:03:26;12.20;99.90
20803;DHT22;10562;-33.856;151.182;2023-08-08T13:05:58;12.10;99.90
20803;DHT22;10562;-33.856;151.182;2023-08-08T13:08:28;12.00;99.90
20803;DHT22;10562;-33.856;151.182;2023-08-08T13:11:01;12.00;99.90
20803;DHT22;10562;-33.856;151.182;2023-08-08T13:13:32;11.90;99.90
20803;DHT22;10562;-33.856;151.182;2023-08-08T13:16:02;11.80;99.90
20803;DHT22;10562;-33.856;151.182;2023-08-08T13:18:35;11.80;99.90
20803;DHT22;10562;-33.856;151.182;2023-08-08T13:21:06;11.70;99.90
20803;DHT22;10562;-33.856;151.182;2023-08-08T13:23:38;11.70;99.90
20803;DHT22;10562;-33.856;151.182;2023-08-08T13:26:09;11.70;99.90
20803;DHT22;10562;-33.856;151.182;2023-08-08T13:28:39;11.70;99.90
20803;DHT22;10562;-33.856;151.182;2023-08-08T13:31:10;11.60;99.90
20803;DHT22;10562;-33.856;151.182;2023-08-08T13:33:43;11.50;99.90
20803;DHT22;10562;-33.856;151.182;2023-08-08T13:36:14;11.50;99.90
20803;DHT22;10562;-33.856;151.182;2023-08-08T13:38:45;11.50;99.90
20803;DHT22;10562;-33.856;151.182;2023-08-08T13:41:16;11.40;99.90
20803;DHT22;10562;-33.856;151.182;2023-08-08T13:43:47;11.40;99.90
20803;DHT22;10562;-33.856;151.182;2023-08-08T13:46:17;11.40;99.90
20803;DHT22;10562;-33.856;151.182;2023-08-08T13:48:50;11.40;99.90
20803;DHT22;10562;-33.856;151.182;2023-08-08T13:51:21;11.40;99.90
20803;DHT22;10562;-33.856;151.182;2023-08-08T13:53:52;11.40;99.90
20803;DHT22;10562;-33.856;151.182;2023-08-08T13:56:23;11.30;99.90
20803;DHT22;10562;-33.856;151.182;2023-08-08T13:58:54;11.30;99.90
20803;DHT22;10562;-33.856;151.182;2023-08-08T14:01:24;11.30;99.90
20803;DHT22;10562;-33.856;151.182;2023-08-08T14:03:57;11.30;99.90
20803;DHT22;10562;-33.856;151.182;2023-08-08T14:06:28;11.20;99.90
20803;DHT22;10562;-33.856;151.182;2023-08-08T14:08:59;11.20;99.90
20803;DHT22;10562;-33.856;151.182;2023-08-08T14:11:29;11.20;99.90
20803;DHT22;10562;-33.856;151.182;2023-08-08T14:14:00;11.10;99.90
20803;DHT22;10562;-33.856;151.182;2023-08-08T14:16:31;11.10;99.90
20803;DHT22;10562;-33.856;151.182;2023-08-08T14:19:04;11.10;99.90
20803;DHT22;10562;-33.856;151.182;2023-08-08T14:21:35;11.00;99.90
20803;DHT22;10562;-33.856;151.182;2023-08-08T14:24:06;11.10;99.90
20803;DHT22;10562;-33.856;151.182;2023-08-08T14:26:37;11.00;99.90
20803;DHT22;10562;-33.856;151.182;2023-08-08T14:29:08;11.00;99.90
20803;DHT22;10562;-33.856;151.182;2023-08-08T14:31:39;11.00;99.90
20803;DHT22;10562;-33.856;151.182;2023-08-08T14:34:11;11.00;99.90
20803;DHT22;10562;-33.856;151.182;2023-08-08T14:36:42;10.90;99.90
20803;DHT22;10562;-33.856;151.182;2023-08-08T14:39:13;10.90;99.90
20803;DHT22;10562;-33.856;151.182;2023-08-08T14:41:44;10.90;99.90
20803;DHT22;10562;-33.856;151.182;2023-08-08T14:44:15;10.90;99.90
20803;DHT22;10562;-33.856;151.182;2023-08-08T14:46:45;10.90;99.90
20803;DHT22;10562;-33.856;151.182;2023-08-08T14:49:18;10.90;99.90
20803;DHT22;10562;-33.856;151.182;2023-08-08T14:51:49;10.90;99.90
20803;DHT22;10562;-33.856;151.182;2023-08-08T14:54:20;10.90;99.90
20803;DHT22;10562;-33.856;151.182;2023-08-08T14:56:51;10.90;99.90
20803;DHT22;10562;-33.856;151.182;2023-08-08T14:59:21;10.90;99.90
20803;DHT22;10562;-33.856;151.182;2023-08-08T15:01:52;10.90;99.90
20803;DHT22;10562;-33.856;151.182;2023-08-08T15:04:25;11.00;99.90
20803;DHT22;10562;-33.856;151.182;2023-08-08T15:06:56;11.10;99.90
20803;DHT22;10562;-33.856;151.182;2023-08-08T15:09:27;11.10;99.90
20803;DHT22;10562;-33.856;151.182;2023-08-08T15:11:58;11.20;99.90
20803;DHT22;10562;-33.856;151.182;2023-08-08T15:14:29;11.20;99.90